sensor_id;sensor_type;location;lat;lon;timestamp;P1;durP1;ratioP1;P2;durP2;ratioP2
11121;SDS011;5615;49.304;10.576;2022-08-21T00:00:48;22.70;;;19.97;;
11121;SDS011;5615;49.304;10.576;2022-08-21T00:03:16;22.57;;;20.20;;
11121;SDS011;5615;49.304;10.576;2022-08-21T00:05:44;25.57;;;19.40;;
11121;SDS011;5615;49.304;10.576;2022-08-21T00:08:11;20.97;;;17.73;;
11121;SDS011;5615;49.304;10.576;2022-08-21T00:10:38;20.10;;;17.93;;
11121;SDS011;5615;49.304;10.576;2022-08-21T00:13:07;27.57;;;21.63;;
11121;SDS011;5615;49.304;10.576;2022-08-21T00:15:35;27.90;;;22.63;;
11121;SDS011;5615;49.304;10.576;2022-08-21T00:18:03;34.70;;;22.53;;
11121;SDS011;5615;49.304;10.576;2022-08-21T00:20:32;31.57;;;22.27;;
11121;SDS011;5615;49.304;10.576;2022-08-21T00:23:00;31.27;;;20.53;;
11121;SDS011;5615;49.304;10.576;2022-08-21T00:25:27;58.50;;;25.33;;
11121;SDS011;5615;49.304;10.576;2022-08-21T00:27:54;112.23;;;25.33;;
11121;SDS011;5615;49.304;10.576;2022-08-21T00:30:23;59.67;;;23.63;;
11121;SDS011;5615;49.304;10.576;2022-08-21T00:32:52;98.67;;;26.00;;
11121;SDS011;5615;49.304;10.576;2022-08-21T00:35:22;84.30;;;26.33;;
11121;SDS011;5615;49.304;10.576;2022-08-21T00:37:51;66.17;;;25.97;;
11121;SDS011;5615;49.304;10.576;2022-08-21T00:40:19;186.60;;;27.53;;
11121;SDS011;5615;49.304;10.576;2022-08-21T00:42:49;268.17;;;33.20;;
11121;SDS011;5615;49.304;10.576;2022-08-21T00:45:16;180.80;;;28.40;;
11121;SDS011;5615;49.304;10.576;2022-08-21T00:47:44;182.23;;;29.70;;
11121;SDS011;5615;49.304;10.576;2022-08-21T00:50:11;127.83;;;28.33;;
11121;SDS011;5615;49.304;10.576;2022-08-21T00:52:38;88.57;;;28.03;;
11121;SDS011;5615;49.304;10.576;2022-08-21T00:55:07;38.67;;;25.27;;
11121;SDS011;5615;49.304;10.576;2022-08-21T00:57:36;44.00;;;25.97;;
11121;SDS011;5615;49.304;10.576;2022-08-21T01:00:07;48.50;;;25.83;;
11121;SDS011;5615;49.304;10.576;2022-08-21T01:02:37;97.13;;;26.73;;
11121;SDS011;5615;49.304;10.576;2022-08-21T01:05:06;42.23;;;23.80;;
11121;SDS011;5615;49.304;10.576;2022-08-21T01:07:34;40.80;;;25.67;;
11121;SDS011;5615;49.304;10.576;2022-08-21T01:10:01;30.10;;;23.77;;
11121;SDS011;5615;49.304;10.576;2022-08-21T01:12:29;31.20;;;23.70;;
11121;SDS011;5615;49.304;10.576;2022-08-21T01:14:55;32.03;;;22.73;;
11121;SDS011;5615;49.304;10.576;2022-08-21T01:17:23;30.93;;;23.63;;
11121;SDS011;5615;49.304;10.576;2022-08-21T01:19:51;28.77;;;21.90;;
11121;SDS011;5615;49.304;10.576;2022-08-21T01:22:20;23.30;;;20.80;;
11121;SDS011;5615;49.304;10.576;2022-08-21T01:24:47;27.03;;;20.83;;
11121;SDS011;5615;49.304;10.576;2022-08-21T01:27:15;23.30;;;20.33;;
11121;SDS011;5615;49.304;10.576;2022-08-21T01:29:42;22.00;;;19.70;;
11121;SDS011;5615;49.304;10.576;2022-08-21T01:32:13;24.23;;;21.60;;
11121;SDS011;5615;49.304;10.576;2022-08-21T01:34:44;23.97;;;21.23;;
11121;SDS011;5615;49.304;10.576;2022-08-21T01:37:13;29.50;;;22.00;;
11121;SDS011;5615;49.304;10.576;2022-08-21T01:39:42;27.27;;;22.73;;
11121;SDS011;5615;49.304;10.576;2022-08-21T01:42:09;27.00;;;22.33;;
11121;SDS011;5615;49.304;10.576;2022-08-21T01:44:36;26.53;;;23.13;;
11121;SDS011;5615;49.304;10.576;2022-08-21T01:47:04;31.67;;;23.43;;
11121;SDS011;5615;49.304;10.576;2022-08-21T01:49:32;26.83;;;22.60;;
11121;SDS011;5615;49.304;10.576;2022-08-21T01:51:59;27.20;;;22.13;;
11121;SDS011;5615;49.304;10.576;2022-08-21T01:54:26;29.03;;;23.33;;
11121;SDS011;5615;49.304;10.576;2022-08-21T01:56:54;23.97;;;21.37;;
11121;SDS011;5615;49.304;10.576;2022-08-21T01:59:21;30.43;;;24.13;;
11121;SDS011;5615;49.304;10.576;2022-08-21T02:01:49;28.63;;;23.57;;
11121;SDS011;5615;49.304;10.576;2022-08-21T02:04:18;25.40;;;22.63;;
11121;SDS011;5615;49.304;10.576;2022-08-21T02:06:46;30.03;;;23.30;;
11121;SDS011;5615;49.304;10.576;2022-08-21T02:09:13;29.07;;;22.90;;
11121;SDS011;5615;49.304;10.576;2022-08-21T02:11:41;28.37;;;23.00;;
11121;SDS011;5615;49.304;10.576;2022-08-21T02:14:09;27.23;;;23.37;;
11121;SDS011;5615;49.304;10.576;2022-08-21T02:16:38;29.43;;;23.53;;
11121;SDS011;5615;49.304;10.576;2022-08-21T02:19:05;29.63;;;25.00;;
11121;SDS011;5615;49.304;10.576;2022-08-21T02:21:32;26.10;;;22.00;;
11121;SDS011;5615;49.304;10.576;2022-08-21T02:23:59;28.83;;;23.77;;
11121;SDS011;5615;49.304;10.576;2022-08-21T02:26:26;29.57;;;22.50;;
11121;SDS011;5615;49.304;10.576;2022-08-21T02:28:53;24.83;;;21.87;;
11121;SDS011;5615;49.304;10.576;2022-08-21T02:31:21;25.70;;;21.37;;
11121;SDS011;5615;49.304;10.576;2022-08-21T02:33:47;26.07;;;22.30;;
11121;SDS011;5615;49.304;10.576;2022-08-21T02:36:14;25.77;;;22.30;;
11121;SDS011;5615;49.304;10.576;2022-08-21T02:38:41;28.13;;;23.30;;
11121;SDS011;5615;49.304;10.576;2022-08-21T02:41:10;29.60;;;23.97;;
11121;SDS011;5615;49.304;10.576;2022-08-21T02:43:38;29.33;;;23.57;;
11121;SDS011;5615;49.304;10.576;2022-08-21T02:46:05;27.90;;;22.60;;
11121;SDS011;5615;49.304;10.576;2022-08-21T02:48:35;27.23;;;22.33;;
11121;SDS011;5615;49.304;10.576;2022-08-21T02:51:03;34.43;;;25.13;;
11121;SDS011;5615;49.304;10.576;2022-08-21T02:53:32;31.27;;;24.20;;
11121;SDS011;5615;49.304;10.576;2022-08-21T02:56:00;28.53;;;22.90;;
11121;SDS011;5615;49.304;10.576;2022-08-21T02:58:31;30.77;;;24.07;;
11121;SDS011;5615;49.304;10.576;2022-08-21T03:01:00;34.77;;;25.90;;
11121;SDS011;5615;49.304;10.576;2022-08-21T03:03:27;31.97;;;24.60;;
11121;SDS011;5615;49.304;10.576;2022-08-21T03:05:55;33.03;;;25.90;;
11121;SDS011;5615;49.304;10.576;2022-08-21T03:08:22;32.00;;;25.23;;
11121;SDS011;5615;49.304;10.576;2022-08-21T03:10:50;36.43;;;26.63;;
11121;SDS011;5615;49.304;10.576;2022-08-21T03:13:18;35.43;;;26.43;;
11121;SDS011;5615;49.304;10.576;2022-08-21T03:15:46;30.57;;;24.07;;
11121;SDS011;5615;49.304;10.576;2022-08-21T03:18:14;40.47;;;25.03;;
11121;SDS011;5615;49.304;10.576;2022-08-21T03:20:42;31.63;;;24.73;;
11121;SDS011;5615;49.304;10.576;2022-08-21T03:23:11;35.17;;;25.03;;
11121;SDS011;5615;49.304;10.576;2022-08-21T03:25:38;34.37;;;26.47;;
11121;SDS011;5615;49.304;10.576;2022-08-21T03:28:06;43.77;;;27.33;;
11121;SDS011;5615;49.304;10.576;2022-08-21T03:30:34;44.70;;;30.73;;
11121;SDS011;5615;49.304;10.576;2022-08-21T03:33:01;49.60;;;32.80;;
11121;SDS011;5615;49.304;10.576;2022-08-21T03:35:29;49.50;;;32.10;;
11121;SDS011;5615;49.304;10.576;2022-08-21T03:37:55;41.60;;;29.10;;
11121;SDS011;5615;49.304;10.576;2022-08-21T03:40:24;41.63;;;30.13;;
11121;SDS011;5615;49.304;10.576;2022-08-21T03:42:51;55.33;;;31.30;;
11121;SDS011;5615;49.304;10.576;2022-08-21T03:45:18;42.30;;;28.90;;
11121;SDS011;5615;49.304;10.576;2022-08-21T03:47:52;44.50;;;29.07;;
11121;SDS011;5615;49.304;10.576;2022-08-21T03:50:20;42.80;;;29.33;;
11121;SDS011;5615;49.304;10.576;2022-08-21T03:52:47;58.13;;;31.03;;
11121;SDS011;5615;49.304;10.576;2022-08-21T03:55:14;63.77;;;30.77;;
11121;SDS011;5615;49.304;10.576;2022-08-21T03:57:42;47.87;;;29.93;;
11121;SDS011;5615;49.304;10.576;2022-08-21T04:00:10;46.97;;;30.40;;
11121;SDS011;5615;49.304;10.576;2022-08-21T04:02:38;45.77;;;28.73;;
11121;SDS011;5615;49.304;10.576;2022-08-21T04:05:05;45.67;;;29.17;;
11121;SDS011;5615;49.304;10.576;2022-08-21T04:07:33;41.37;;;27.67;;
11121;SDS011;5615;49.304;10.576;2022-08-21T04:10:00;35.73;;;26.03;;
11121;SDS011;5615;49.304;10.576;2022-08-21T04:12:27;37.73;;;26.13;;
11121;SDS011;5615;49.304;10.576;2022-08-21T04:14:54;35.10;;;25.90;;
11121;SDS011;5615;49.304;10.576;2022-08-21T04:17:21;39.57;;;27.67;;
11121;SDS011;5615;49.304;10.576;2022-08-21T04:19:48;38.37;;;27.50;;
11121;SDS011;5615;49.304;10.576;2022-08-21T04:22:15;35.10;;;25.63;;
11121;SDS011;5615;49.304;10.576;2022-08-21T04:24:42;36.40;;;26.83;;
11121;SDS011;5615;49.304;10.576;2022-08-21T04:27:08;35.80;;;24.67;;
11121;SDS011;5615;49.304;10.576;2022-08-21T04:29:36;32.20;;;24.30;;
11121;SDS011;5615;49.304;10.576;2022-08-21T04:32:04;35.13;;;25.73;;
11121;SDS011;5615;49.304;10.576;2022-08-21T04:34:31;31.30;;;23.53;;
11121;SDS011;5615;49.304;10.576;2022-08-21T04:36:58;36.70;;;25.93;;
11121;SDS011;5615;49.304;10.576;2022-08-21T04:39:24;39.57;;;27.70;;
11121;SDS011;5615;49.304;10.576;2022-08-21T04:41:51;39.57;;;27.67;;
11121;SDS011;5615;49.304;10.576;2022-08-21T04:44:17;78.03;;;31.23;;
11121;SDS011;5615;49.304;10.576;2022-08-21T04:46:44;64.60;;;29.80;;
11121;SDS011;5615;49.304;10.576;2022-08-21T04:49:12;55.93;;;28.17;;
11121;SDS011;5615;49.304;10.576;2022-08-21T04:51:39;64.93;;;29.50;;
11121;SDS011;5615;49.304;10.576;2022-08-21T04:54:07;60.23;;;29.83;;
11121;SDS011;5615;49.304;10.576;2022-08-21T04:56:38;43.63;;;28.57;;
11121;SDS011;5615;49.304;10.576;2022-08-21T04:59:10;67.77;;;31.10;;
11121;SDS011;5615;49.304;10.576;2022-08-21T05:01:39;74.77;;;32.20;;
11121;SDS011;5615;49.304;10.576;2022-08-21T05:04:07;55.23;;;29.40;;
11121;SDS011;5615;49.304;10.576;2022-08-21T05:06:37;55.43;;;28.63;;
11121;SDS011;5615;49.304;10.576;2022-08-21T05:09:07;111.47;;;29.97;;
11121;SDS011;5615;49.304;10.576;2022-08-21T05:11:35;53.53;;;27.13;;
11121;SDS011;5615;49.304;10.576;2022-08-21T05:14:03;32.77;;;26.03;;
11121;SDS011;5615;49.304;10.576;2022-08-21T05:16:29;52.97;;;27.97;;
11121;SDS011;5615;49.304;10.576;2022-08-21T05:18:56;31.30;;;26.07;;
11121;SDS011;5615;49.304;10.576;2022-08-21T05:21:23;35.80;;;26.47;;
11121;SDS011;5615;49.304;10.576;2022-08-21T05:23:51;40.03;;;28.37;;
11121;SDS011;5615;49.304;10.576;2022-08-21T05:26:18;37.40;;;26.77;;
11121;SDS011;5615;49.304;10.576;2022-08-21T05:28:44;31.80;;;25.83;;
11121;SDS011;5615;49.304;10.576;2022-08-21T05:31:11;33.83;;;26.10;;
11121;SDS011;5615;49.304;10.576;2022-08-21T05:33:38;31.17;;;26.53;;
11121;SDS011;5615;49.304;10.576;2022-08-21T05:36:04;29.33;;;24.63;;
11121;SDS011;5615;49.304;10.576;2022-08-21T05:38:31;30.07;;;25.30;;
11121;SDS011;5615;49.304;10.576;2022-08-21T05:40:59;27.70;;;23.80;;
11121;SDS011;5615;49.304;10.576;2022-08-21T05:43:26;27.40;;;23.87;;
11121;SDS011;5615;49.304;10.576;2022-08-21T05:45:53;29.57;;;25.03;;
11121;SDS011;5615;49.304;10.576;2022-08-21T05:48:21;28.53;;;24.87;;
11121;SDS011;5615;49.304;10.576;2022-08-21T05:50:49;28.67;;;25.20;;
11121;SDS011;5615;49.304;10.576;2022-08-21T05:53:18;27.93;;;23.83;;
11121;SDS011;5615;49.304;10.576;2022-08-21T05:55:46;26.63;;;23.00;;
11121;SDS011;5615;49.304;10.576;2022-08-21T05:58:15;30.80;;;26.33;;
11121;SDS011;5615;49.304;10.576;2022-08-21T06:00:44;29.27;;;24.23;;
11121;SDS011;5615;49.304;10.576;2022-08-21T06:03:12;28.37;;;24.00;;
11121;SDS011;5615;49.304;10.576;2022-08-21T06:05:41;29.47;;;23.07;;
11121;SDS011;5615;49.304;10.576;2022-08-21T06:08:08;28.93;;;24.07;;
11121;SDS011;5615;49.304;10.576;2022-08-21T06:10:35;25.37;;;22.63;;
11121;SDS011;5615;49.304;10.576;2022-08-21T06:13:01;26.07;;;23.37;;
11121;SDS011;5615;49.304;10.576;2022-08-21T06:15:29;25.33;;;22.80;;
11121;SDS011;5615;49.304;10.576;2022-08-21T06:17:56;25.37;;;22.73;;
11121;SDS011;5615;49.304;10.576;2022-08-21T06:20:23;24.47;;;21.70;;
11121;SDS011;5615;49.304;10.576;2022-08-21T06:22:50;24.07;;;21.10;;
11121;SDS011;5615;49.304;10.576;2022-08-21T06:25:17;24.47;;;21.73;;
11121;SDS011;5615;49.304;10.576;2022-08-21T06:27:44;26.93;;;20.03;;
11121;SDS011;5615;49.304;10.576;2022-08-21T06:30:11;23.13;;;20.63;;
11121;SDS011;5615;49.304;10.576;2022-08-21T06:32:39;23.80;;;20.80;;
11121;SDS011;5615;49.304;10.576;2022-08-21T06:35:06;24.30;;;21.90;;
11121;SDS011;5615;49.304;10.576;2022-08-21T06:37:33;23.40;;;20.73;;
11121;SDS011;5615;49.304;10.576;2022-08-21T06:40:00;22.53;;;20.33;;
11121;SDS011;5615;49.304;10.576;2022-08-21T06:42:27;24.20;;;21.60;;
11121;SDS011;5615;49.304;10.576;2022-08-21T06:44:53;22.30;;;20.03;;
11121;SDS011;5615;49.304;10.576;2022-08-21T06:47:21;22.53;;;20.33;;
11121;SDS011;5615;49.304;10.576;2022-08-21T06:49:49;22.30;;;20.10;;
11121;SDS011;5615;49.304;10.576;2022-08-21T06:52:15;22.97;;;19.30;;
11121;SDS011;5615;49.304;10.576;2022-08-21T06:54:42;20.37;;;18.30;;
11121;SDS011;5615;49.304;10.576;2022-08-21T06:57:09;23.23;;;18.43;;
11121;SDS011;5615;49.304;10.576;2022-08-21T06:59:35;19.67;;;17.73;;
11121;SDS011;5615;49.304;10.576;2022-08-21T07:02:02;18.87;;;17.07;;
11121;SDS011;5615;49.304;10.576;2022-08-21T07:04:29;18.30;;;16.37;;
11121;SDS011;5615;49.304;10.576;2022-08-21T07:06:57;17.73;;;16.07;;
11121;SDS011;5615;49.304;10.576;2022-08-21T07:09:24;17.67;;;15.50;;
11121;SDS011;5615;49.304;10.576;2022-08-21T07:11:51;16.88;;;15.15;;
11121;SDS011;5615;49.304;10.576;2022-08-21T07:14:20;17.40;;;15.60;;
11121;SDS011;5615;49.304;10.576;2022-08-21T07:16:47;17.47;;;15.63;;
11121;SDS011;5615;49.304;10.576;2022-08-21T07:19:14;17.57;;;15.70;;
11121;SDS011;5615;49.304;10.576;2022-08-21T07:21:41;16.70;;;15.00;;
11121;SDS011;5615;49.304;10.576;2022-08-21T07:24:09;16.50;;;14.90;;
11121;SDS011;5615;49.304;10.576;2022-08-21T07:26:35;15.63;;;14.23;;
11121;SDS011;5615;49.304;10.576;2022-08-21T07:29:02;14.75;;;13.27;;
11121;SDS011;5615;49.304;10.576;2022-08-21T07:31:29;14.48;;;13.13;;
11121;SDS011;5615;49.304;10.576;2022-08-21T07:33:56;14.32;;;12.88;;
11121;SDS011;5615;49.304;10.576;2022-08-21T07:36:23;13.57;;;12.30;;
11121;SDS011;5615;49.304;10.576;2022-08-21T07:38:50;12.70;;;11.40;;
11121;SDS011;5615;49.304;10.576;2022-08-21T07:41:19;11.25;;;10.15;;
11121;SDS011;5615;49.304;10.576;2022-08-21T07:43:47;12.05;;;10.85;;
11121;SDS011;5615;49.304;10.576;2022-08-21T07:46:14;11.48;;;10.38;;
11121;SDS011;5615;49.304;10.576;2022-08-21T07:48:41;14.00;;;10.30;;
11121;SDS011;5615;49.304;10.576;2022-08-21T07:51:09;11.13;;;10.13;;
11121;SDS011;5615;49.304;10.576;2022-08-21T07:53:38;12.25;;;11.13;;
11121;SDS011;5615;49.304;10.576;2022-08-21T07:56:05;12.23;;;11.13;;
11121;SDS011;5615;49.304;10.576;2022-08-21T07:58:34;11.38;;;10.02;;
11121;SDS011;5615;49.304;10.576;2022-08-21T08:01:01;11.85;;;10.75;;
11121;SDS011;5615;49.304;10.576;2022-08-21T08:03:27;10.88;;;9.98;;
11121;SDS011;5615;49.304;10.576;2022-08-21T08:05:54;12.55;;;11.35;;
11121;SDS011;5615;49.304;10.576;2022-08-21T08:08:21;12.38;;;11.15;;
11121;SDS011;5615;49.304;10.576;2022-08-21T08:10:48;10.35;;;9.35;;
11121;SDS011;5615;49.304;10.576;2022-08-21T08:13:15;10.85;;;8.95;;
11121;SDS011;5615;49.304;10.576;2022-08-21T08:15:43;9.98;;;8.93;;
11121;SDS011;5615;49.304;10.576;2022-08-21T08:18:10;9.25;;;8.40;;
11121;SDS011;5615;49.304;10.576;2022-08-21T08:20:36;9.27;;;8.23;;
11121;SDS011;5615;49.304;10.576;2022-08-21T08:23:03;9.63;;;8.60;;
11121;SDS011;5615;49.304;10.576;2022-08-21T08:25:30;8.43;;;7.72;;
11121;SDS011;5615;49.304;10.576;2022-08-21T08:27:57;8.55;;;7.75;;
11121;SDS011;5615;49.304;10.576;2022-08-21T08:30:24;7.93;;;6.88;;
11121;SDS011;5615;49.304;10.576;2022-08-21T08:32:52;7.85;;;7.15;;
11121;SDS011;5615;49.304;10.576;2022-08-21T08:35:18;7.28;;;6.68;;
11121;SDS011;5615;49.304;10.576;2022-08-21T08:37:45;8.63;;;7.30;;
11121;SDS011;5615;49.304;10.576;2022-08-21T08:40:12;7.57;;;6.88;;
11121;SDS011;5615;49.304;10.576;2022-08-21T08:42:46;8.15;;;6.18;;
11121;SDS011;5615;49.304;10.576;2022-08-21T08:45:15;7.82;;;7.13;;
11121;SDS011;5615;49.304;10.576;2022-08-21T08:47:45;7.05;;;6.40;;
11121;SDS011;5615;49.304;10.576;2022-08-21T08:50:17;7.68;;;6.97;;
11121;SDS011;5615;49.304;10.576;2022-08-21T08:52:48;6.45;;;5.88;;
11121;SDS011;5615;49.304;10.576;2022-08-21T08:55:18;6.38;;;5.80;;
11121;SDS011;5615;49.304;10.576;2022-08-21T08:57:49;7.03;;;5.65;;
11121;SDS011;5615;49.304;10.576;2022-08-21T09:00:18;8.13;;;5.80;;
11121;SDS011;5615;49.304;10.576;2022-08-21T09:02:46;6.07;;;5.57;;
11121;SDS011;5615;49.304;10.576;2022-08-21T09:05:20;6.13;;;5.63;;
11121;SDS011;5615;49.304;10.576;2022-08-21T09:07:56;5.22;;;4.57;;
11121;SDS011;5615;49.304;10.576;2022-08-21T09:10:38;4.50;;;4.10;;
11121;SDS011;5615;49.304;10.576;2022-08-21T09:13:14;4.50;;;4.10;;
11121;SDS011;5615;49.304;10.576;2022-08-21T09:15:54;4.47;;;4.05;;
11121;SDS011;5615;49.304;10.576;2022-08-21T09:18:30;4.50;;;4.10;;
11121;SDS011;5615;49.304;10.576;2022-08-21T09:21:09;4.45;;;4.05;;
11121;SDS011;5615;49.304;10.576;2022-08-21T09:23:43;4.22;;;3.92;;
11121;SDS011;5615;49.304;10.576;2022-08-21T09:26:23;4.63;;;4.22;;
11121;SDS011;5615;49.304;10.576;2022-08-21T09:28:52;4.10;;;3.80;;
11121;SDS011;5615;49.304;10.576;2022-08-21T09:31:22;4.40;;;4.10;;
11121;SDS011;5615;49.304;10.576;2022-08-21T09:33:56;5.07;;;3.65;;
11121;SDS011;5615;49.304;10.576;2022-08-21T09:36:28;4.43;;;4.13;;
11121;SDS011;5615;49.304;10.576;2022-08-21T09:39:00;4.68;;;4.25;;
11121;SDS011;5615;49.304;10.576;2022-08-21T09:41:27;4.22;;;3.92;;
11121;SDS011;5615;49.304;10.576;2022-08-21T09:43:55;4.07;;;3.78;;
11121;SDS011;5615;49.304;10.576;2022-08-21T09:46:23;5.93;;;4.15;;
11121;SDS011;5615;49.304;10.576;2022-08-21T09:48:52;3.88;;;3.58;;
11121;SDS011;5615;49.304;10.576;2022-08-21T09:51:22;4.82;;;4.03;;
11121;SDS011;5615;49.304;10.576;2022-08-21T09:53:53;5.53;;;4.53;;
11121;SDS011;5615;49.304;10.576;2022-08-21T09:56:27;8.20;;;4.85;;
11121;SDS011;5615;49.304;10.576;2022-08-21T09:59:15;4.95;;;4.10;;
11121;SDS011;5615;49.304;10.576;2022-08-21T10:01:45;3.97;;;3.67;;
11121;SDS011;5615;49.304;10.576;2022-08-21T10:04:13;4.57;;;4.13;;
11121;SDS011;5615;49.304;10.576;2022-08-21T10:06:41;4.30;;;4.00;;
11121;SDS011;5615;49.304;10.576;2022-08-21T10:09:09;3.90;;;3.55;;
11121;SDS011;5615;49.304;10.576;2022-08-21T10:11:38;3.97;;;3.67;;
11121;SDS011;5615;49.304;10.576;2022-08-21T10:14:11;3.90;;;3.33;;
11121;SDS011;5615;49.304;10.576;2022-08-21T10:16:46;3.80;;;3.50;;
11121;SDS011;5615;49.304;10.576;2022-08-21T10:19:22;3.75;;;3.25;;
11121;SDS011;5615;49.304;10.576;2022-08-21T10:22:01;4.70;;;3.40;;
11121;SDS011;5615;49.304;10.576;2022-08-21T10:24:37;3.35;;;3.05;;
11121;SDS011;5615;49.304;10.576;2022-08-21T10:27:14;3.40;;;2.90;;
11121;SDS011;5615;49.304;10.576;2022-08-21T10:29:48;3.50;;;3.20;;
11121;SDS011;5615;49.304;10.576;2022-08-21T10:32:24;3.50;;;3.20;;
11121;SDS011;5615;49.304;10.576;2022-08-21T10:35:01;6.13;;;3.30;;
11121;SDS011;5615;49.304;10.576;2022-08-21T10:37:37;4.20;;;3.55;;
11121;SDS011;5615;49.304;10.576;2022-08-21T10:40:15;3.72;;;3.30;;
11121;SDS011;5615;49.304;10.576;2022-08-21T10:42:49;3.30;;;3.00;;
11121;SDS011;5615;49.304;10.576;2022-08-21T10:45:30;2.97;;;2.60;;
11121;SDS011;5615;49.304;10.576;2022-08-21T10:48:04;3.30;;;3.00;;
11121;SDS011;5615;49.304;10.576;2022-08-21T10:50:35;3.25;;;2.95;;
11121;SDS011;5615;49.304;10.576;2022-08-21T10:53:11;3.75;;;3.05;;
11121;SDS011;5615;49.304;10.576;2022-08-21T10:55:50;3.20;;;2.97;;
11121;SDS011;5615;49.304;10.576;2022-08-21T10:58:28;3.17;;;2.97;;
11121;SDS011;5615;49.304;10.576;2022-08-21T11:01:00;3.25;;;3.03;;
11121;SDS011;5615;49.304;10.576;2022-08-21T11:03:34;3.17;;;2.90;;
11121;SDS011;5615;49.304;10.576;2022-08-21T11:06:06;3.10;;;2.90;;
11121;SDS011;5615;49.304;10.576;2022-08-21T11:08:39;3.72;;;2.90;;
11121;SDS011;5615;49.304;10.576;2022-08-21T11:11:10;2.90;;;2.70;;
11121;SDS011;5615;49.304;10.576;2022-08-21T11:13:42;3.03;;;2.83;;
11121;SDS011;5615;49.304;10.576;2022-08-21T11:16:14;2.80;;;2.58;;
11121;SDS011;5615;49.304;10.576;2022-08-21T11:18:49;3.85;;;2.50;;
11121;SDS011;5615;49.304;10.576;2022-08-21T11:21:24;2.90;;;2.70;;
11121;SDS011;5615;49.304;10.576;2022-08-21T11:23:59;3.00;;;2.80;;
11121;SDS011;5615;49.304;10.576;2022-08-21T11:26:32;2.97;;;2.78;;
11121;SDS011;5615;49.304;10.576;2022-08-21T11:29:07;3.47;;;2.60;;
11121;SDS011;5615;49.304;10.576;2022-08-21T11:31:39;3.70;;;2.60;;
11121;SDS011;5615;49.304;10.576;2022-08-21T11:34:21;3.72;;;2.78;;
11121;SDS011;5615;49.304;10.576;2022-08-21T11:36:59;3.03;;;2.72;;
11121;SDS011;5615;49.304;10.576;2022-08-21T11:39:31;2.75;;;2.53;;
11121;SDS011;5615;49.304;10.576;2022-08-21T11:42:08;4.68;;;2.60;;
11121;SDS011;5615;49.304;10.576;2022-08-21T11:44:46;2.88;;;2.67;;
11121;SDS011;5615;49.304;10.576;2022-08-21T11:47:19;3.72;;;2.47;;
11121;SDS011;5615;49.304;10.576;2022-08-21T11:49:58;3.00;;;2.80;;
11121;SDS011;5615;49.304;10.576;2022-08-21T11:52:38;3.00;;;2.80;;
11121;SDS011;5615;49.304;10.576;2022-08-21T11:55:07;3.10;;;2.80;;
11121;SDS011;5615;49.304;10.576;2022-08-21T11:57:40;3.00;;;2.80;;
11121;SDS011;5615;49.304;10.576;2022-08-21T12:00:16;3.00;;;2.75;;
11121;SDS011;5615;49.304;10.576;2022-08-21T12:02:48;3.15;;;2.90;;
11121;SDS011;5615;49.304;10.576;2022-08-21T12:05:25;2.83;;;2.63;;
11121;SDS011;5615;49.304;10.576;2022-08-21T12:08:00;3.08;;;2.78;;
11121;SDS011;5615;49.304;10.576;2022-08-21T12:10:31;2.70;;;2.50;;
11121;SDS011;5615;49.304;10.576;2022-08-21T12:13:10;2.95;;;2.65;;
11121;SDS011;5615;49.304;10.576;2022-08-21T12:15:47;3.60;;;2.47;;
11121;SDS011;5615;49.304;10.576;2022-08-21T12:18:22;3.30;;;2.58;;
11121;SDS011;5615;49.304;10.576;2022-08-21T12:20:59;3.22;;;2.70;;
11121;SDS011;5615;49.304;10.576;2022-08-21T12:23:30;2.78;;;2.58;;
11121;SDS011;5615;49.304;10.576;2022-08-21T12:25:59;3.80;;;2.65;;
11121;SDS011;5615;49.304;10.576;2022-08-21T12:28:30;2.80;;;2.60;;
11121;SDS011;5615;49.304;10.576;2022-08-21T12:30:57;2.90;;;2.60;;
11121;SDS011;5615;49.304;10.576;2022-08-21T12:33:26;2.72;;;2.45;;
11121;SDS011;5615;49.304;10.576;2022-08-21T12:36:01;3.25;;;2.58;;
11121;SDS011;5615;49.304;10.576;2022-08-21T12:38:33;2.60;;;2.40;;
11121;SDS011;5615;49.304;10.576;2022-08-21T12:41:11;2.75;;;2.55;;
11121;SDS011;5615;49.304;10.576;2022-08-21T12:43:47;3.00;;;2.70;;
11121;SDS011;5615;49.304;10.576;2022-08-21T12:46:19;3.00;;;2.70;;
11121;SDS011;5615;49.304;10.576;2022-08-21T12:48:48;2.78;;;2.58;;
11121;SDS011;5615;49.304;10.576;2022-08-21T12:51:21;2.60;;;2.40;;
11121;SDS011;5615;49.304;10.576;2022-08-21T12:53:51;2.90;;;2.70;;
11121;SDS011;5615;49.304;10.576;2022-08-21T12:56:20;3.65;;;2.80;;
11121;SDS011;5615;49.304;10.576;2022-08-21T12:58:50;2.60;;;2.40;;
11121;SDS011;5615;49.304;10.576;2022-08-21T13:01:20;2.75;;;2.55;;
11121;SDS011;5615;49.304;10.576;2022-08-21T13:03:51;2.22;;;2.13;;
11121;SDS011;5615;49.304;10.576;2022-08-21T13:06:21;2.75;;;2.55;;
11121;SDS011;5615;49.304;10.576;2022-08-21T13:08:50;2.70;;;2.50;;
11121;SDS011;5615;49.304;10.576;2022-08-21T13:11:22;3.00;;;2.80;;
11121;SDS011;5615;49.304;10.576;2022-08-21T13:13:52;3.42;;;2.75;;
11121;SDS011;5615;49.304;10.576;2022-08-21T13:16:22;2.95;;;2.65;;
11121;SDS011;5615;49.304;10.576;2022-08-21T13:18:54;2.83;;;2.63;;
11121;SDS011;5615;49.304;10.576;2022-08-21T13:21:27;4.25;;;2.80;;
11121;SDS011;5615;49.304;10.576;2022-08-21T13:24:06;5.32;;;2.55;;
11121;SDS011;5615;49.304;10.576;2022-08-21T13:26:38;2.75;;;2.55;;
11121;SDS011;5615;49.304;10.576;2022-08-21T13:29:07;3.47;;;2.70;;
11121;SDS011;5615;49.304;10.576;2022-08-21T13:31:36;2.90;;;2.70;;
11121;SDS011;5615;49.304;10.576;2022-08-21T13:34:05;2.90;;;2.70;;
11121;SDS011;5615;49.304;10.576;2022-08-21T13:36:34;3.05;;;2.80;;
11121;SDS011;5615;49.304;10.576;2022-08-21T13:39:02;3.13;;;2.83;;
11121;SDS011;5615;49.304;10.576;2022-08-21T13:41:30;2.97;;;2.70;;
11121;SDS011;5615;49.304;10.576;2022-08-21T13:44:00;3.75;;;2.67;;
11121;SDS011;5615;49.304;10.576;2022-08-21T13:46:31;2.88;;;2.65;;
11121;SDS011;5615;49.304;10.576;2022-08-21T13:49:00;3.00;;;2.80;;
11121;SDS011;5615;49.304;10.576;2022-08-21T13:51:29;3.05;;;2.50;;
11121;SDS011;5615;49.304;10.576;2022-08-21T13:53:58;3.15;;;2.85;;
11121;SDS011;5615;49.304;10.576;2022-08-21T13:56:26;5.13;;;2.50;;
11121;SDS011;5615;49.304;10.576;2022-08-21T13:58:55;3.88;;;2.95;;
11121;SDS011;5615;49.304;10.576;2022-08-21T14:01:25;2.60;;;2.40;;
11121;SDS011;5615;49.304;10.576;2022-08-21T14:03:55;2.78;;;2.50;;
11121;SDS011;5615;49.304;10.576;2022-08-21T14:06:27;3.80;;;2.90;;
11121;SDS011;5615;49.304;10.576;2022-08-21T14:08:59;5.00;;;2.70;;
11121;SDS011;5615;49.304;10.576;2022-08-21T14:11:28;4.00;;;2.58;;
11121;SDS011;5615;49.304;10.576;2022-08-21T14:14:01;2.60;;;2.40;;
11121;SDS011;5615;49.304;10.576;2022-08-21T14:16:40;3.15;;;2.40;;
11121;SDS011;5615;49.304;10.576;2022-08-21T14:19:12;2.50;;;2.30;;
11121;SDS011;5615;49.304;10.576;2022-08-21T14:21:45;2.80;;;2.58;;
11121;SDS011;5615;49.304;10.576;2022-08-21T14:24:13;2.80;;;2.60;;
11121;SDS011;5615;49.304;10.576;2022-08-21T14:26:51;3.05;;;2.75;;
11121;SDS011;5615;49.304;10.576;2022-08-21T14:29:21;2.85;;;2.65;;
11121;SDS011;5615;49.304;10.576;2022-08-21T14:31:51;3.10;;;2.70;;
11121;SDS011;5615;49.304;10.576;2022-08-21T14:34:20;2.72;;;2.53;;
11121;SDS011;5615;49.304;10.576;2022-08-21T14:36:48;5.03;;;3.20;;
11121;SDS011;5615;49.304;10.576;2022-08-21T14:39:15;4.38;;;2.72;;
11121;SDS011;5615;49.304;10.576;2022-08-21T14:41:42;2.70;;;2.50;;
11121;SDS011;5615;49.304;10.576;2022-08-21T14:44:10;2.80;;;2.50;;
11121;SDS011;5615;49.304;10.576;2022-08-21T14:46:37;2.83;;;2.30;;